sensor_id;sensor_type;location;lat;lon;timestamp;temperature;humidity
20481;DHT22;10399;50.754;3.366;2022-10-16T00:01:28;15.90;99.90
20481;DHT22;10399;50.754;3.366;2022-10-16T00:03:57;15.70;99.90
20481;DHT22;10399;50.754;3.366;2022-10-16T00:06:25;15.60;99.90
20481;DHT22;10399;50.754;3.366;2022-10-16T00:08:53;15.60;99.90
20481;DHT22;10399;50.754;3.366;2022-10-16T00:11:25;15.80;99.90
20481;DHT22;10399;50.754;3.366;2022-10-16T00:13:58;15.70;99.90
20481;DHT22;10399;50.754;3.366;2022-10-16T00:16:26;15.60;99.90
20481;DHT22;10399;50.754;3.366;2022-10-16T00:18:54;15.60;99.90
20481;DHT22;10399;50.754;3.366;2022-10-16T00:21:24;15.50;99.90
20481;DHT22;10399;50.754;3.366;2022-10-16T00:24:01;15.60;99.90
20481;DHT22;10399;50.754;3.366;2022-10-16T00:26:31;15.80;99.90
20481;DHT22;10399;50.754;3.366;2022-10-16T00:28:58;15.70;99.90
20481;DHT22;10399;50.754;3.366;2022-10-16T00:31:26;15.60;99.90
20481;DHT22;10399;50.754;3.366;2022-10-16T00:33:53;15.50;99.90
20481;DHT22;10399;50.754;3.366;2022-10-16T00:36:23;15.30;99.90
20481;DHT22;10399;50.754;3.366;2022-10-16T00:38:52;15.40;99.90
20481;DHT22;10399;50.754;3.366;2022-10-16T00:41:23;15.50;99.90
20481;DHT22;10399;50.754;3.366;2022-10-16T00:43:53;15.50;99.90
20481;DHT22;10399;50.754;3.366;2022-10-16T00:51:35;15.40;99.90
20481;DHT22;10399;50.754;3.366;2022-10-16T00:54:04;15.40;99.90
20481;DHT22;10399;50.754;3.366;2022-10-16T00:56:34;15.50;99.90
20481;DHT22;10399;50.754;3.366;2022-10-16T00:59:19;15.30;99.90
20481;DHT22;10399;50.754;3.366;2022-10-16T01:01:47;15.30;99.90
20481;DHT22;10399;50.754;3.366;2022-10-16T01:04:14;15.50;99.90
20481;DHT22;10399;50.754;3.366;2022-10-16T01:20:45;15.30;99.90
20481;DHT22;10399;50.754;3.366;2022-10-16T01:28:28;15.50;99.90
20481;DHT22;10399;50.754;3.366;2022-10-16T01:30:59;15.30;99.90
20481;DHT22;10399;50.754;3.366;2022-10-16T01:33:39;15.30;99.90
20481;DHT22;10399;50.754;3.366;2022-10-16T01:36:21;15.40;99.90
20481;DHT22;10399;50.754;3.366;2022-10-16T01:38:52;15.50;99.90
20481;DHT22;10399;50.754;3.366;2022-10-16T01:41:25;15.40;99.90
20481;DHT22;10399;50.754;3.366;2022-10-16T01:43:59;15.30;99.90
20481;DHT22;10399;50.754;3.366;2022-10-16T01:46:31;15.20;99.90
20481;DHT22;10399;50.754;3.366;2022-10-16T01:49:00;15.30;99.90
20481;DHT22;10399;50.754;3.366;2022-10-16T01:51:29;15.20;99.90
20481;DHT22;10399;50.754;3.366;2022-10-16T01:53:59;15.20;99.90
20481;DHT22;10399;50.754;3.366;2022-10-16T01:56:27;15.30;99.90
20481;DHT22;10399;50.754;3.366;2022-10-16T01:59:07;15.20;99.90
20481;DHT22;10399;50.754;3.366;2022-10-16T02:01:40;15.30;99.90
20481;DHT22;10399;50.754;3.366;2022-10-16T02:06:56;15.30;99.90
20481;DHT22;10399;50.754;3.366;2022-10-16T02:09:23;15.10;99.90
20481;DHT22;10399;50.754;3.366;2022-10-16T02:11:53;14.90;99.90
20481;DHT22;10399;50.754;3.366;2022-10-16T02:14:21;15.10;99.90
20481;DHT22;10399;50.754;3.366;2022-10-16T02:16:51;15.20;99.90
20481;DHT22;10399;50.754;3.366;2022-10-16T02:19:19;15.20;99.90
20481;DHT22;10399;50.754;3.366;2022-10-16T02:22:04;15.10;99.90
20481;DHT22;10399;50.754;3.366;2022-10-16T02:24:40;15.20;99.90
20481;DHT22;10399;50.754;3.366;2022-10-16T02:28:33;15.10;99.90
20481;DHT22;10399;50.754;3.366;2022-10-16T02:30:38;15.20;99.90
20481;DHT22;10399;50.754;3.366;2022-10-16T02:33:08;15.00;99.90
20481;DHT22;10399;50.754;3.366;2022-10-16T02:35:37;14.90;99.90
20481;DHT22;10399;50.754;3.366;2022-10-16T02:38:05;15.10;99.90
20481;DHT22;10399;50.754;3.366;2022-10-16T02:40:33;15.10;99.90
20481;DHT22;10399;50.754;3.366;2022-10-16T02:43:03;15.20;99.90
20481;DHT22;10399;50.754;3.366;2022-10-16T02:45:32;15.30;99.90
20481;DHT22;10399;50.754;3.366;2022-10-16T02:47:59;15.10;99.90
20481;DHT22;10399;50.754;3.366;2022-10-16T02:50:26;14.90;99.90
20481;DHT22;10399;50.754;3.366;2022-10-16T02:52:53;15.00;99.90
20481;DHT22;10399;50.754;3.366;2022-10-16T02:55:20;15.00;99.90
20481;DHT22;10399;50.754;3.366;2022-10-16T02:57:47;15.10;99.90
20481;DHT22;10399;50.754;3.366;2022-10-16T03:00:16;15.10;99.90
20481;DHT22;10399;50.754;3.366;2022-10-16T03:02:44;15.00;99.90
20481;DHT22;10399;50.754;3.366;2022-10-16T03:05:11;15.00;99.90
20481;DHT22;10399;50.754;3.366;2022-10-16T03:07:38;15.00;99.90
20481;DHT22;10399;50.754;3.366;2022-10-16T03:10:06;14.90;99.90
20481;DHT22;10399;50.754;3.366;2022-10-16T03:12:33;14.90;99.90
20481;DHT22;10399;50.754;3.366;2022-10-16T03:15:01;14.90;99.90
20481;DHT22;10399;50.754;3.366;2022-10-16T03:17:28;14.80;99.90
20481;DHT22;10399;50.754;3.366;2022-10-16T03:19:55;14.70;99.90
20481;DHT22;10399;50.754;3.366;2022-10-16T03:22:22;14.70;99.90
20481;DHT22;10399;50.754;3.366;2022-10-16T03:24:49;14.80;99.90
20481;DHT22;10399;50.754;3.366;2022-10-16T03:27:16;14.80;99.90
20481;DHT22;10399;50.754;3.366;2022-10-16T03:29:43;14.90;99.90
20481;DHT22;10399;50.754;3.366;2022-10-16T03:32:10;14.90;99.90
20481;DHT22;10399;50.754;3.366;2022-10-16T03:34:37;14.90;99.90
20481;DHT22;10399;50.754;3.366;2022-10-16T03:37:04;15.00;99.90
20481;DHT22;10399;50.754;3.366;2022-10-16T03:39:31;15.00;99.90
20481;DHT22;10399;50.754;3.366;2022-10-16T03:41:58;15.00;99.90
20481;DHT22;10399;50.754;3.366;2022-10-16T03:44:25;15.10;99.90
20481;DHT22;10399;50.754;3.366;2022-10-16T03:46:52;15.00;99.90
20481;DHT22;10399;50.754;3.366;2022-10-16T03:49:19;15.00;99.90
20481;DHT22;10399;50.754;3.366;2022-10-16T03:51:46;14.90;99.90
20481;DHT22;10399;50.754;3.366;2022-10-16T03:54:13;15.00;99.90
20481;DHT22;10399;50.754;3.366;2022-10-16T03:56:40;15.10;99.90
20481;DHT22;10399;50.754;3.366;2022-10-16T03:59:07;15.10;99.90
20481;DHT22;10399;50.754;3.366;2022-10-16T04:01:34;15.00;99.90
20481;DHT22;10399;50.754;3.366;2022-10-16T04:04:01;14.90;99.90
20481;DHT22;10399;50.754;3.366;2022-10-16T04:06:28;14.80;99.90
20481;DHT22;10399;50.754;3.366;2022-10-16T04:08:54;14.90;99.90
20481;DHT22;10399;50.754;3.366;2022-10-16T04:11:22;14.90;99.90
20481;DHT22;10399;50.754;3.366;2022-10-16T04:13:49;15.00;99.90
20481;DHT22;10399;50.754;3.366;2022-10-16T04:16:16;14.90;99.90
20481;DHT22;10399;50.754;3.366;2022-10-16T04:18:43;14.90;99.90
20481;DHT22;10399;50.754;3.366;2022-10-16T04:21:10;14.80;99.90
20481;DHT22;10399;50.754;3.366;2022-10-16T04:23:37;14.80;99.90
20481;DHT22;10399;50.754;3.366;2022-10-16T04:26:04;14.60;99.90
20481;DHT22;10399;50.754;3.366;2022-10-16T04:28:31;14.70;99.90
20481;DHT22;10399;50.754;3.366;2022-10-16T04:30:58;14.60;99.90
20481;DHT22;10399;50.754;3.366;2022-10-16T04:33:25;14.70;99.90
20481;DHT22;10399;50.754;3.366;2022-10-16T04:35:59;14.60;99.90
20481;DHT22;10399;50.754;3.366;2022-10-16T04:38:26;14.60;99.90
20481;DHT22;10399;50.754;3.366;2022-10-16T04:40:54;14.50;99.90
20481;DHT22;10399;50.754;3.366;2022-10-16T04:43:22;14.60;99.90
20481;DHT22;10399;50.754;3.366;2022-10-16T04:45:49;14.60;99.90
20481;DHT22;10399;50.754;3.366;2022-10-16T04:48:20;14.50;99.90
20481;DHT22;10399;50.754;3.366;2022-10-16T04:50:46;14.40;99.90
20481;DHT22;10399;50.754;3.366;2022-10-16T04:53:20;14.40;99.90
20481;DHT22;10399;50.754;3.366;2022-10-16T04:55:48;14.60;99.90
20481;DHT22;10399;50.754;3.366;2022-10-16T04:58:15;14.70;99.90
20481;DHT22;10399;50.754;3.366;2022-10-16T05:00:42;14.60;99.90
20481;DHT22;10399;50.754;3.366;2022-10-16T05:03:10;14.70;99.90
20481;DHT22;10399;50.754;3.366;2022-10-16T05:05:42;14.60;99.90
20481;DHT22;10399;50.754;3.366;2022-10-16T05:08:09;14.70;99.90
20481;DHT22;10399;50.754;3.366;2022-10-16T05:10:36;14.70;99.90
20481;DHT22;10399;50.754;3.366;2022-10-16T05:13:03;14.70;99.90
20481;DHT22;10399;50.754;3.366;2022-10-16T05:15:30;14.90;99.90
20481;DHT22;10399;50.754;3.366;2022-10-16T05:17:57;14.70;99.90
20481;DHT22;10399;50.754;3.366;2022-10-16T05:20:25;14.80;99.90
20481;DHT22;10399;50.754;3.366;2022-10-16T05:22:52;14.90;99.90
20481;DHT22;10399;50.754;3.366;2022-10-16T05:25:19;14.90;99.90
20481;DHT22;10399;50.754;3.366;2022-10-16T05:27:49;14.80;99.90
20481;DHT22;10399;50.754;3.366;2022-10-16T05:30:17;14.80;99.90
20481;DHT22;10399;50.754;3.366;2022-10-16T05:32:50;14.70;99.90
20481;DHT22;10399;50.754;3.366;2022-10-16T05:35:19;14.70;99.90
20481;DHT22;10399;50.754;3.366;2022-10-16T05:37:46;14.70;99.90
20481;DHT22;10399;50.754;3.366;2022-10-16T05:40:14;14.90;99.90
20481;DHT22;10399;50.754;3.366;2022-10-16T05:42:41;14.80;99.90
20481;DHT22;10399;50.754;3.366;2022-10-16T05:45:10;14.80;99.90
20481;DHT22;10399;50.754;3.366;2022-10-16T05:47:38;14.70;99.90
20481;DHT22;10399;50.754;3.366;2022-10-16T05:50:06;14.80;99.90
20481;DHT22;10399;50.754;3.366;2022-10-16T05:52:33;14.60;99.90
20481;DHT22;10399;50.754;3.366;2022-10-16T05:55:00;14.50;99.90
20481;DHT22;10399;50.754;3.366;2022-10-16T05:57:27;14.70;99.90
20481;DHT22;10399;50.754;3.366;2022-10-16T05:59:55;14.70;99.90
20481;DHT22;10399;50.754;3.366;2022-10-16T06:02:22;14.40;99.90
20481;DHT22;10399;50.754;3.366;2022-10-16T06:04:51;14.40;99.90
20481;DHT22;10399;50.754;3.366;2022-10-16T06:07:18;14.30;99.90
20481;DHT22;10399;50.754;3.366;2022-10-16T06:09:51;14.40;99.90
20481;DHT22;10399;50.754;3.366;2022-10-16T06:12:19;14.30;99.90
20481;DHT22;10399;50.754;3.366;2022-10-16T06:14:46;14.50;99.90
20481;DHT22;10399;50.754;3.366;2022-10-16T06:17:14;14.40;99.90
20481;DHT22;10399;50.754;3.366;2022-10-16T06:19:41;14.50;99.90
20481;DHT22;10399;50.754;3.366;2022-10-16T06:22:08;14.60;99.90
20481;DHT22;10399;50.754;3.366;2022-10-16T06:24:35;14.60;99.90
20481;DHT22;10399;50.754;3.366;2022-10-16T06:27:04;14.40;99.90
20481;DHT22;10399;50.754;3.366;2022-10-16T06:29:31;14.60;99.90
20481;DHT22;10399;50.754;3.366;2022-10-16T06:31:58;14.60;99.90
20481;DHT22;10399;50.754;3.366;2022-10-16T06:34:25;14.60;99.90
20481;DHT22;10399;50.754;3.366;2022-10-16T06:36:52;14.70;99.90
20481;DHT22;10399;50.754;3.366;2022-10-16T06:39:19;14.50;99.90
20481;DHT22;10399;50.754;3.366;2022-10-16T06:41:46;14.70;99.90
20481;DHT22;10399;50.754;3.366;2022-10-16T06:44:13;14.60;99.90
20481;DHT22;10399;50.754;3.366;2022-10-16T06:46:40;14.60;99.90
20481;DHT22;10399;50.754;3.366;2022-10-16T06:49:07;14.60;99.90
20481;DHT22;10399;50.754;3.366;2022-10-16T06:51:34;14.70;99.90
20481;DHT22;10399;50.754;3.366;2022-10-16T06:54:08;14.60;99.90
20481;DHT22;10399;50.754;3.366;2022-10-16T06:56:35;14.40;99.90
20481;DHT22;10399;50.754;3.366;2022-10-16T06:59:03;14.30;99.90
20481;DHT22;10399;50.754;3.366;2022-10-16T07:01:30;14.30;99.90
20481;DHT22;10399;50.754;3.366;2022-10-16T07:03:58;14.50;99.90
20481;DHT22;10399;50.754;3.366;2022-10-16T07:06:26;14.70;99.90
20481;DHT22;10399;50.754;3.366;2022-10-16T07:08:54;14.60;99.90
20481;DHT22;10399;50.754;3.366;2022-10-16T07:11:22;14.50;99.90
20481;DHT22;10399;50.754;3.366;2022-10-16T07:13:51;14.70;99.90
20481;DHT22;10399;50.754;3.366;2022-10-16T07:16:26;14.80;99.90
20481;DHT22;10399;50.754;3.366;2022-10-16T07:18:59;14.70;99.90
20481;DHT22;10399;50.754;3.366;2022-10-16T07:21:32;14.80;99.90
20481;DHT22;10399;50.754;3.366;2022-10-16T07:24:05;14.80;99.90
20481;DHT22;10399;50.754;3.366;2022-10-16T07:26:35;14.80;99.90
20481;DHT22;10399;50.754;3.366;2022-10-16T07:29:02;15.00;99.90
20481;DHT22;10399;50.754;3.366;2022-10-16T07:31:31;15.10;99.90
20481;DHT22;10399;50.754;3.366;2022-10-16T07:33:59;15.10;99.90
20481;DHT22;10399;50.754;3.366;2022-10-16T07:36:27;15.30;99.90
20481;DHT22;10399;50.754;3.366;2022-10-16T07:38:54;15.40;99.90
20481;DHT22;10399;50.754;3.366;2022-10-16T07:41:25;15.70;99.90
20481;DHT22;10399;50.754;3.366;2022-10-16T07:43:53;15.80;99.90
20481;DHT22;10399;50.754;3.366;2022-10-16T07:46:22;15.90;99.90
20481;DHT22;10399;50.754;3.366;2022-10-16T07:48:50;15.80;99.90
20481;DHT22;10399;50.754;3.366;2022-10-16T07:51:20;16.00;99.90
20481;DHT22;10399;50.754;3.366;2022-10-16T07:53:47;16.10;99.90
20481;DHT22;10399;50.754;3.366;2022-10-16T07:56:16;15.80;99.90
20481;DHT22;10399;50.754;3.366;2022-10-16T07:58:45;16.00;99.90
20481;DHT22;10399;50.754;3.366;2022-10-16T08:01:14;16.30;99.90
20481;DHT22;10399;50.754;3.366;2022-10-16T08:03:46;16.50;99.90
20481;DHT22;10399;50.754;3.366;2022-10-16T08:06:15;16.60;99.90
20481;DHT22;10399;50.754;3.366;2022-10-16T08:08:42;16.60;99.90
20481;DHT22;10399;50.754;3.366;2022-10-16T08:11:10;16.60;99.90
20481;DHT22;10399;50.754;3.366;2022-10-16T08:13:37;16.80;99.90
20481;DHT22;10399;50.754;3.366;2022-10-16T08:16:04;16.70;99.90
20481;DHT22;10399;50.754;3.366;2022-10-16T08:18:35;16.90;99.90
20481;DHT22;10399;50.754;3.366;2022-10-16T08:21:03;16.90;99.90
20481;DHT22;10399;50.754;3.366;2022-10-16T08:23:32;16.70;99.90
20481;DHT22;10399;50.754;3.366;2022-10-16T08:26:07;16.70;99.90
20481;DHT22;10399;50.754;3.366;2022-10-16T08:28:35;16.80;99.90
20481;DHT22;10399;50.754;3.366;2022-10-16T08:31:14;16.90;99.90
20481;DHT22;10399;50.754;3.366;2022-10-16T08:33:44;17.00;99.90
20481;DHT22;10399;50.754;3.366;2022-10-16T08:36:14;17.20;99.90
20481;DHT22;10399;50.754;3.366;2022-10-16T08:38:42;17.40;99.90
20481;DHT22;10399;50.754;3.366;2022-10-16T08:49:00;17.30;99.90
20481;DHT22;10399;50.754;3.366;2022-10-16T08:51:35;17.90;99.90
20481;DHT22;10399;50.754;3.366;2022-10-16T08:54:28;18.20;99.90
20481;DHT22;10399;50.754;3.366;2022-10-16T08:57:00;18.00;99.90
20481;DHT22;10399;50.754;3.366;2022-10-16T08:59:33;18.10;99.90
20481;DHT22;10399;50.754;3.366;2022-10-16T09:02:01;18.40;99.90
20481;DHT22;10399;50.754;3.366;2022-10-16T09:10:30;18.60;99.90
20481;DHT22;10399;50.754;3.366;2022-10-16T09:16:30;18.90;99.90
20481;DHT22;10399;50.754;3.366;2022-10-16T09:19:14;18.70;99.90
20481;DHT22;10399;50.754;3.366;2022-10-16T09:21:45;19.00;99.90
20481;DHT22;10399;50.754;3.366;2022-10-16T09:24:18;19.20;99.90
20481;DHT22;10399;50.754;3.366;2022-10-16T09:26:46;19.60;99.90
20481;DHT22;10399;50.754;3.366;2022-10-16T09:29:18;19.60;99.90
20481;DHT22;10399;50.754;3.366;2022-10-16T09:31:53;19.80;99.90
20481;DHT22;10399;50.754;3.366;2022-10-16T09:34:30;20.00;99.90
20481;DHT22;10399;50.754;3.366;2022-10-16T09:36:59;20.50;99.90
20481;DHT22;10399;50.754;3.366;2022-10-16T09:39:27;20.40;99.90
20481;DHT22;10399;50.754;3.366;2022-10-16T09:41:54;20.70;99.90
20481;DHT22;10399;50.754;3.366;2022-10-16T09:44:28;20.90;99.90
20481;DHT22;10399;50.754;3.366;2022-10-16T09:47:13;20.70;99.90
20481;DHT22;10399;50.754;3.366;2022-10-16T09:49:58;21.00;99.90
20481;DHT22;10399;50.754;3.366;2022-10-16T09:52:29;20.90;99.90
20481;DHT22;10399;50.754;3.366;2022-10-16T09:54:59;21.10;99.90
20481;DHT22;10399;50.754;3.366;2022-10-16T09:57:27;20.60;99.90
20481;DHT22;10399;50.754;3.366;2022-10-16T09:59:56;20.70;99.90
20481;DHT22;10399;50.754;3.366;2022-10-16T10:02:34;21.20;99.90
20481;DHT22;10399;50.754;3.366;2022-10-16T10:05:05;21.40;99.90
20481;DHT22;10399;50.754;3.366;2022-10-16T10:07:39;21.80;99.90
20481;DHT22;10399;50.754;3.366;2022-10-16T10:10:24;21.60;99.90
20481;DHT22;10399;50.754;3.366;2022-10-16T10:12:52;21.50;99.90
20481;DHT22;10399;50.754;3.366;2022-10-16T10:15:20;21.50;99.90
20481;DHT22;10399;50.754;3.366;2022-10-16T10:17:51;21.60;99.90
20481;DHT22;10399;50.754;3.366;2022-10-16T10:20:32;21.70;99.90
20481;DHT22;10399;50.754;3.366;2022-10-16T10:23:15;21.90;99.90
20481;DHT22;10399;50.754;3.366;2022-10-16T10:26:07;21.90;99.90
20481;DHT22;10399;50.754;3.366;2022-10-16T10:28:52;21.70;99.90
20481;DHT22;10399;50.754;3.366;2022-10-16T10:37:02;21.60;99.90
20481;DHT22;10399;50.754;3.366;2022-10-16T10:39:41;22.10;99.90
20481;DHT22;10399;50.754;3.366;2022-10-16T10:42:22;22.40;99.90
20481;DHT22;10399;50.754;3.366;2022-10-16T10:45:47;22.90;99.90
20481;DHT22;10399;50.754;3.366;2022-10-16T10:48:39;23.30;99.90
20481;DHT22;10399;50.754;3.366;2022-10-16T10:51:19;23.40;99.90
20481;DHT22;10399;50.754;3.366;2022-10-16T10:54:17;22.90;99.90
20481;DHT22;10399;50.754;3.366;2022-10-16T11:02:21;22.70;99.90
20481;DHT22;10399;50.754;3.366;2022-10-16T11:04:58;23.20;99.90
20481;DHT22;10399;50.754;3.366;2022-10-16T11:07:32;23.30;99.90
20481;DHT22;10399;50.754;3.366;2022-10-16T11:10:13;23.30;99.90
20481;DHT22;10399;50.754;3.366;2022-10-16T11:13:00;23.30;99.90
20481;DHT22;10399;50.754;3.366;2022-10-16T11:15:35;23.80;99.90
20481;DHT22;10399;50.754;3.366;2022-10-16T11:18:07;23.40;99.90
20481;DHT22;10399;50.754;3.366;2022-10-16T11:20:39;23.80;99.90
20481;DHT22;10399;50.754;3.366;2022-10-16T11:25:49;24.50;99.90
20481;DHT22;10399;50.754;3.366;2022-10-16T11:31:02;24.00;99.90
20481;DHT22;10399;50.754;3.366;2022-10-16T11:33:42;23.90;99.90
20481;DHT22;10399;50.754;3.366;2022-10-16T11:36:18;24.10;99.90
20481;DHT22;10399;50.754;3.366;2022-10-16T11:38:58;23.70;99.90
20481;DHT22;10399;50.754;3.366;2022-10-16T11:41:38;23.20;99.90
20481;DHT22;10399;50.754;3.366;2022-10-16T11:49:56;22.80;99.90
20481;DHT22;10399;50.754;3.366;2022-10-16T11:52:40;23.10;99.90
20481;DHT22;10399;50.754;3.366;2022-10-16T11:55:17;23.40;99.90
20481;DHT22;10399;50.754;3.366;2022-10-16T11:58:02;23.60;99.90
20481;DHT22;10399;50.754;3.366;2022-10-16T12:09:24;24.70;99.90
20481;DHT22;10399;50.754;3.366;2022-10-16T12:11:52;24.50;99.90
20481;DHT22;10399;50.754;3.366;2022-10-16T12:14:38;24.60;99.90
20481;DHT22;10399;50.754;3.366;2022-10-16T12:17:35;24.60;99.90
20481;DHT22;10399;50.754;3.366;2022-10-16T12:22:50;24.20;99.90
20481;DHT22;10399;50.754;3.366;2022-10-16T12:28:29;22.70;99.90
20481;DHT22;10399;50.754;3.366;2022-10-16T12:31:04;22.70;99.90
20481;DHT22;10399;50.754;3.366;2022-10-16T12:33:33;22.60;99.90
20481;DHT22;10399;50.754;3.366;2022-10-16T12:36:04;22.50;99.90
20481;DHT22;10399;50.754;3.366;2022-10-16T12:38:52;22.60;99.90
20481;DHT22;10399;50.754;3.366;2022-10-16T12:43:53;22.60;99.90
20481;DHT22;10399;50.754;3.366;2022-10-16T12:46:35;22.80;99.90
20481;DHT22;10399;50.754;3.366;2022-10-16T12:49:17;22.80;99.90
20481;DHT22;10399;50.754;3.366;2022-10-16T12:51:47;22.70;99.90
20481;DHT22;10399;50.754;3.366;2022-10-16T12:54:35;22.40;99.90
20481;DHT22;10399;50.754;3.366;2022-10-16T13:11:45;21.40;99.90
20481;DHT22;10399;50.754;3.366;2022-10-16T13:19:44;21.70;99.90
20481;DHT22;10399;50.754;3.366;2022-10-16T13:28:06;21.40;99.90
20481;DHT22;10399;50.754;3.366;2022-10-16T13:30:38;21.40;99.90
20481;DHT22;10399;50.754;3.366;2022-10-16T13:33:20;21.50;99.90
20481;DHT22;10399;50.754;3.366;2022-10-16T13:35:56;21.30;99.90
20481;DHT22;10399;50.754;3.366;2022-10-16T13:38:26;21.00;99.90
20481;DHT22;10399;50.754;3.366;2022-10-16T13:40:56;21.00;99.90
20481;DHT22;10399;50.754;3.366;2022-10-16T13:46:17;21.00;99.90
20481;DHT22;10399;50.754;3.366;2022-10-16T13:48:55;21.00;99.90
20481;DHT22;10399;50.754;3.366;2022-10-16T13:51:22;21.20;99.90
20481;DHT22;10399;50.754;3.366;2022-10-16T13:53:50;21.20;99.90
20481;DHT22;10399;50.754;3.366;2022-10-16T13:56:20;21.40;99.90
20481;DHT22;10399;50.754;3.366;2022-10-16T13:58:59;21.50;99.90
20481;DHT22;10399;50.754;3.366;2022-10-16T14:01:32;21.40;99.90
20481;DHT22;10399;50.754;3.366;2022-10-16T14:04:07;21.30;99.90
20481;DHT22;10399;50.754;3.366;2022-10-16T14:06:36;21.30;99.90
20481;DHT22;10399;50.754;3.366;2022-10-16T14:11:49;21.20;99.90
20481;DHT22;10399;50.754;3.366;2022-10-16T14:14:19;21.10;99.90
20481;DHT22;10399;50.754;3.366;2022-10-16T14:16:46;20.90;99.90
20481;DHT22;10399;50.754;3.366;2022-10-16T14:21:44;20.70;99.90
20481;DHT22;10399;50.754;3.366;2022-10-16T14:26:52;20.70;99.90
20481;DHT22;10399;50.754;3.366;2022-10-16T14:29:21;20.70;99.90
20481;DHT22;10399;50.754;3.366;2022-10-16T14:32:05;20.60;99.90
20481;DHT22;10399;50.754;3.366;2022-10-16T14:34:39;20.70;99.90
20481;DHT22;10399;50.754;3.366;2022-10-16T14:39:49;20.70;99.90
20481;DHT22;10399;50.754;3.366;2022-10-16T14:42:18;20.90;99.90
20481;DHT22;10399;50.754;3.366;2022-10-16T14:44:47;20.90;99.90
20481;DHT22;10399;50.754;3.366;2022-10-16T14:47:16;20.60;99.90
20481;DHT22;10399;50.754;3.366;2022-10-16T14:49:49;20.50;99.90
20481;DHT22;10399;50.754;3.366;2022-10-16T14:52:15;20.50;99.90
20481;DHT22;10399;50.754;3.366;2022-10-16T14:54:43;20.60;99.90
20481;DHT22;10399;50.754;3.366;2022-10-16T14:57:20;20.70;99.90
20481;DHT22;10399;50.754;3.366;2022-10-16T14:59:49;20.70;99.90
20481;DHT22;10399;50.754;3.366;2022-10-16T15:02:34;20.70;99.90
20481;DHT22;10399;50.754;3.366;2022-10-16T15:05:22;20.80;99.90
20481;DHT22;10399;50.754;3.366;2022-10-16T15:07:51;20.70;99.90
20481;DHT22;10399;50.754;3.366;2022-10-16T15:10:23;20.40;99.90
20481;DHT22;10399;50.754;3.366;2022-10-16T15:12:50;20.40;99.90
20481;DHT22;10399;50.754;3.366;2022-10-16T15:17:51;20.30;99.90
20481;DHT22;10399;50.754;3.366;2022-10-16T15:20:24;20.40;99.90
20481;DHT22;10399;50.754;3.366;2022-10-16T15:22:51;20.20;99.90
20481;DHT22;10399;50.754;3.366;2022-10-16T15:25:38;20.10;99.90
20481;DHT22;10399;50.754;3.366;2022-10-16T15:28:09;20.00;99.90
20481;DHT22;10399;50.754;3.366;2022-10-16T15:30:37;20.00;99.90
20481;DHT22;10399;50.754;3.366;2022-10-16T15:33:05;20.00;99.90
20481;DHT22;10399;50.754;3.366;2022-10-16T15:35:36;20.00;99.90
20481;DHT22;10399;50.754;3.366;2022-10-16T15:38:03;20.10;99.90
20481;DHT22;10399;50.754;3.366;2022-10-16T15:40:30;20.00;99.90
20481;DHT22;10399;50.754;3.366;2022-10-16T15:42:57;20.10;99.90
20481;DHT22;10399;50.754;3.366;2022-10-16T15:45:24;20.10;99.90
20481;DHT22;10399;50.754;3.366;2022-10-16T15:47:51;20.10;99.90
20481;DHT22;10399;50.754;3.366;2022-10-16T15:50:18;19.90;99.90
20481;DHT22;10399;50.754;3.366;2022-10-16T15:52:45;20.00;99.90
20481;DHT22;10399;50.754;3.366;2022-10-16T15:55:14;20.00;99.90
20481;DHT22;10399;50.754;3.366;2022-10-16T15:57:41;19.90;99.90
20481;DHT22;10399;50.754;3.366;2022-10-16T16:00:13;19.70;99.90
20481;DHT22;10399;50.754;3.366;2022-10-16T16:02:42;19.70;99.90
20481;DHT22;10399;50.754;3.366;2022-10-16T16:05:10;19.80;99.90
20481;DHT22;10399;50.754;3.366;2022-10-16T16:07:39;19.70;99.90
20481;DHT22;10399;50.754;3.366;2022-10-16T16:10:08;19.80;99.90
20481;DHT22;10399;50.754;3.366;2022-10-16T16:12:37;19.90;99.90
20481;DHT22;10399;50.754;3.366;2022-10-16T16:15:05;19.80;99.90
20481;DHT22;10399;50.754;3.366;2022-10-16T16:17:34;19.70;99.90
20481;DHT22;10399;50.754;3.366;2022-10-16T16:20:02;19.70;99.90
20481;DHT22;10399;50.754;3.366;2022-10-16T16:22:29;19.70;99.90
20481;DHT22;10399;50.754;3.366;2022-10-16T16:24:57;19.80;99.90
20481;DHT22;10399;50.754;3.366;2022-10-16T16:27:24;19.90;99.90
20481;DHT22;10399;50.754;3.366;2022-10-16T16:29:56;19.70;99.90
20481;DHT22;10399;50.754;3.366;2022-10-16T16:32:23;19.70;99.90
20481;DHT22;10399;50.754;3.366;2022-10-16T16:34:51;19.70;99.90
20481;DHT22;10399;50.754;3.366;2022-10-16T16:37:18;19.70;99.90
20481;DHT22;10399;50.754;3.366;2022-10-16T16:39:45;19.80;99.90
20481;DHT22;10399;50.754;3.366;2022-10-16T16:42:12;19.60;99.90
20481;DHT22;10399;50.754;3.366;2022-10-16T16:44:39;19.60;99.90
20481;DHT22;10399;50.754;3.366;2022-10-16T16:47:06;19.50;99.90
20481;DHT22;10399;50.754;3.366;2022-10-16T16:49:33;19.50;99.90
20481;DHT22;10399;50.754;3.366;2022-10-16T16:52:00;19.50;99.90
20481;DHT22;10399;50.754;3.366;2022-10-16T16:54:27;19.50;99.90
20481;DHT22;10399;50.754;3.366;2022-10-16T16:56:54;19.50;99.90
20481;DHT22;10399;50.754;3.366;2022-10-16T16:59:21;19.40;99.90
20481;DHT22;10399;50.754;3.366;2022-10-16T17:01:49;19.30;99.90
20481;DHT22;10399;50.754;3.366;2022-10-16T17:04:22;19.30;99.90
20481;DHT22;10399;50.754;3.366;2022-10-16T17:06:49;19.30;99.90
20481;DHT22;10399;50.754;3.366;2022-10-16T17:09:16;19.20;99.90
20481;DHT22;10399;50.754;3.366;2022-10-16T17:11:43;19.20;99.90
20481;DHT22;10399;50.754;3.366;2022-10-16T17:14:11;19.20;99.90
20481;DHT22;10399;50.754;3.366;2022-10-16T17:16:39;19.10;99.90
20481;DHT22;10399;50.754;3.366;2022-10-16T17:19:09;19.00;99.90
20481;DHT22;10399;50.754;3.366;2022-10-16T17:21:37;19.00;99.90
20481;DHT22;10399;50.754;3.366;2022-10-16T17:24:04;19.00;99.90
20481;DHT22;10399;50.754;3.366;2022-10-16T17:26:32;19.00;99.90
20481;DHT22;10399;50.754;3.366;2022-10-16T17:29:00;18.90;99.90
20481;DHT22;10399;50.754;3.366;2022-10-16T17:31:33;18.90;99.90
20481;DHT22;10399;50.754;3.366;2022-10-16T17:34:05;18.90;99.90
20481;DHT22;10399;50.754;3.366;2022-10-16T17:36:34;19.10;99.90
20481;DHT22;10399;50.754;3.366;2022-10-16T17:39:07;19.10;99.90
20481;DHT22;10399;50.754;3.366;2022-10-16T17:41:36;19.00;99.90
20481;DHT22;10399;50.754;3.366;2022-10-16T17:44:04;18.90;99.90
20481;DHT22;10399;50.754;3.366;2022-10-16T17:46:32;18.70;99.90
20481;DHT22;10399;50.754;3.366;2022-10-16T17:49:05;18.80;99.90
20481;DHT22;10399;50.754;3.366;2022-10-16T17:51:32;18.60;99.90
20481;DHT22;10399;50.754;3.366;2022-10-16T17:54:00;18.40;99.90
20481;DHT22;10399;50.754;3.366;2022-10-16T17:56:29;18.50;99.90
20481;DHT22;10399;50.754;3.366;2022-10-16T17:58:58;18.50;99.90